sensor_id;sensor_type;location;lat;lon;timestamp;temperature;humidity
37289;DHT22;23174;49.462;11.000;2022-07-29T00:01:04;23.20;92.00
37289;DHT22;23174;49.462;11.000;2022-07-29T00:03:04;23.10;92.20
37289;DHT22;23174;49.462;11.000;2022-07-29T00:05:05;23.30;92.30
37289;DHT22;23174;49.462;11.000;2022-07-29T00:07:06;23.20;92.00
37289;DHT22;23174;49.462;11.000;2022-07-29T00:09:07;23.30;92.10
37289;DHT22;23174;49.462;11.000;2022-07-29T00:11:07;23.40;92.10
37289;DHT22;23174;49.462;11.000;2022-07-29T00:13:08;23.30;92.10
37289;DHT22;23174;49.462;11.000;2022-07-29T00:15:09;23.30;91.90
37289;DHT22;23174;49.462;11.000;2022-07-29T00:17:09;23.20;92.10
37289;DHT22;23174;49.462;11.000;2022-07-29T00:19:10;23.20;92.10
37289;DHT22;23174;49.462;11.000;2022-07-29T00:21:10;23.10;92.00
37289;DHT22;23174;49.462;11.000;2022-07-29T00:23:11;23.10;92.00
37289;DHT22;23174;49.462;11.000;2022-07-29T00:25:12;23.10;91.90
37289;DHT22;23174;49.462;11.000;2022-07-29T00:27:13;23.10;91.90
37289;DHT22;23174;49.462;11.000;2022-07-29T00:29:13;23.10;92.40
37289;DHT22;23174;49.462;11.000;2022-07-29T00:31:14;23.00;92.20
37289;DHT22;23174;49.462;11.000;2022-07-29T00:33:15;23.10;92.00
37289;DHT22;23174;49.462;11.000;2022-07-29T00:35:16;23.10;92.00
37289;DHT22;23174;49.462;11.000;2022-07-29T00:37:35;22.90;92.10
37289;DHT22;23174;49.462;11.000;2022-07-29T00:39:35;22.90;92.10
37289;DHT22;23174;49.462;11.000;2022-07-29T00:41:36;22.90;92.20
37289;DHT22;23174;49.462;11.000;2022-07-29T00:43:36;23.00;92.20
37289;DHT22;23174;49.462;11.000;2022-07-29T00:45:37;23.00;92.20
37289;DHT22;23174;49.462;11.000;2022-07-29T00:47:38;23.20;91.90
37289;DHT22;23174;49.462;11.000;2022-07-29T00:49:40;23.10;92.10
37289;DHT22;23174;49.462;11.000;2022-07-29T00:51:41;23.00;92.10
37289;DHT22;23174;49.462;11.000;2022-07-29T00:53:41;22.90;92.20
37289;DHT22;23174;49.462;11.000;2022-07-29T00:55:42;23.00;92.20
37289;DHT22;23174;49.462;11.000;2022-07-29T00:57:44;23.00;92.10
37289;DHT22;23174;49.462;11.000;2022-07-29T00:59:45;23.00;92.20
37289;DHT22;23174;49.462;11.000;2022-07-29T01:01:45;22.90;92.20
37289;DHT22;23174;49.462;11.000;2022-07-29T01:03:46;22.90;92.20
37289;DHT22;23174;49.462;11.000;2022-07-29T01:05:46;23.00;92.20
37289;DHT22;23174;49.462;11.000;2022-07-29T01:07:49;22.90;92.20
37289;DHT22;23174;49.462;11.000;2022-07-29T01:09:51;22.90;92.20
37289;DHT22;23174;49.462;11.000;2022-07-29T01:11:54;22.70;92.40
37289;DHT22;23174;49.462;11.000;2022-07-29T01:13:55;22.70;92.60
37289;DHT22;23174;49.462;11.000;2022-07-29T01:16:10;22.70;92.70
37289;DHT22;23174;49.462;11.000;2022-07-29T01:18:24;22.60;92.90
37289;DHT22;23174;49.462;11.000;2022-07-29T01:23:11;22.60;93.10
37289;DHT22;23174;49.462;11.000;2022-07-29T01:25:43;23.00;93.10
37289;DHT22;23174;49.462;11.000;2022-07-29T01:28:17;23.00;92.80
37289;DHT22;23174;49.462;11.000;2022-07-29T01:30:24;22.70;93.50
37289;DHT22;23174;49.462;11.000;2022-07-29T01:32:29;22.70;93.90
37289;DHT22;23174;49.462;11.000;2022-07-29T01:34:41;22.90;93.60
37289;DHT22;23174;49.462;11.000;2022-07-29T01:37:36;23.00;93.30
37289;DHT22;23174;49.462;11.000;2022-07-29T01:41:19;22.70;93.70
37289;DHT22;23174;49.462;11.000;2022-07-29T01:43:27;23.00;93.80
37289;DHT22;23174;49.462;11.000;2022-07-29T01:46:04;22.90;93.30
37289;DHT22;23174;49.462;11.000;2022-07-29T01:48:21;22.80;93.50
37289;DHT22;23174;49.462;11.000;2022-07-29T01:50:28;22.90;93.30
37289;DHT22;23174;49.462;11.000;2022-07-29T01:52:36;23.10;93.10
37289;DHT22;23174;49.462;11.000;2022-07-29T01:54:52;23.00;92.80
37289;DHT22;23174;49.462;11.000;2022-07-29T01:56:56;22.80;93.10
37289;DHT22;23174;49.462;11.000;2022-07-29T01:58:57;22.90;93.00
37289;DHT22;23174;49.462;11.000;2022-07-29T02:00:59;22.90;93.20
37289;DHT22;23174;49.462;11.000;2022-07-29T02:03:05;23.00;93.00
37289;DHT22;23174;49.462;11.000;2022-07-29T02:05:10;23.00;92.80
37289;DHT22;23174;49.462;11.000;2022-07-29T02:07:13;22.70;93.00
37289;DHT22;23174;49.462;11.000;2022-07-29T02:09:16;22.50;93.10
37289;DHT22;23174;49.462;11.000;2022-07-29T02:11:18;22.50;93.20
37289;DHT22;23174;49.462;11.000;2022-07-29T02:13:19;22.40;93.20
37289;DHT22;23174;49.462;11.000;2022-07-29T02:15:22;22.40;93.30
37289;DHT22;23174;49.462;11.000;2022-07-29T02:17:33;22.30;93.20
37289;DHT22;23174;49.462;11.000;2022-07-29T02:19:37;22.30;93.30
37289;DHT22;23174;49.462;11.000;2022-07-29T02:21:38;22.30;93.50
37289;DHT22;23174;49.462;11.000;2022-07-29T02:23:40;22.30;93.60
37289;DHT22;23174;49.462;11.000;2022-07-29T02:25:41;22.50;93.90
37289;DHT22;23174;49.462;11.000;2022-07-29T02:27:43;22.80;93.40
37289;DHT22;23174;49.462;11.000;2022-07-29T02:29:46;22.70;93.50
37289;DHT22;23174;49.462;11.000;2022-07-29T02:31:48;22.60;93.00
37289;DHT22;23174;49.462;11.000;2022-07-29T02:33:49;22.40;93.20
37289;DHT22;23174;49.462;11.000;2022-07-29T02:35:50;22.30;93.30
37289;DHT22;23174;49.462;11.000;2022-07-29T02:37:52;22.20;93.30
37289;DHT22;23174;49.462;11.000;2022-07-29T02:40:14;22.10;93.40
37289;DHT22;23174;49.462;11.000;2022-07-29T02:42:16;22.10;93.60
37289;DHT22;23174;49.462;11.000;2022-07-29T02:44:24;22.10;93.60
37289;DHT22;23174;49.462;11.000;2022-07-29T02:46:29;22.10;93.80
37289;DHT22;23174;49.462;11.000;2022-07-29T02:48:41;22.20;93.60
37289;DHT22;23174;49.462;11.000;2022-07-29T02:50:49;22.10;93.50
37289;DHT22;23174;49.462;11.000;2022-07-29T02:52:55;22.10;93.60
37289;DHT22;23174;49.462;11.000;2022-07-29T02:55:01;22.20;93.50
37289;DHT22;23174;49.462;11.000;2022-07-29T02:57:10;22.20;93.40
37289;DHT22;23174;49.462;11.000;2022-07-29T02:59:12;22.30;93.70
37289;DHT22;23174;49.462;11.000;2022-07-29T03:01:24;22.30;93.40
37289;DHT22;23174;49.462;11.000;2022-07-29T03:03:29;22.20;93.40
37289;DHT22;23174;49.462;11.000;2022-07-29T03:05:31;22.20;93.40
37289;DHT22;23174;49.462;11.000;2022-07-29T03:07:33;22.10;93.40
37289;DHT22;23174;49.462;11.000;2022-07-29T03:09:36;22.10;93.60
37289;DHT22;23174;49.462;11.000;2022-07-29T03:11:37;22.10;93.80
37289;DHT22;23174;49.462;11.000;2022-07-29T03:13:39;22.00;93.70
37289;DHT22;23174;49.462;11.000;2022-07-29T03:15:42;21.90;94.00
37289;DHT22;23174;49.462;11.000;2022-07-29T03:17:44;21.80;93.90
37289;DHT22;23174;49.462;11.000;2022-07-29T03:19:45;21.80;93.90
37289;DHT22;23174;49.462;11.000;2022-07-29T03:21:46;21.80;93.90
37289;DHT22;23174;49.462;11.000;2022-07-29T03:23:46;21.80;93.80
37289;DHT22;23174;49.462;11.000;2022-07-29T03:25:47;21.80;93.90
37289;DHT22;23174;49.462;11.000;2022-07-29T03:27:48;21.90;93.70
37289;DHT22;23174;49.462;11.000;2022-07-29T03:29:49;21.80;93.80
37289;DHT22;23174;49.462;11.000;2022-07-29T03:31:49;21.90;93.70
37289;DHT22;23174;49.462;11.000;2022-07-29T03:33:50;21.90;93.80
37289;DHT22;23174;49.462;11.000;2022-07-29T03:35:51;22.00;93.70
37289;DHT22;23174;49.462;11.000;2022-07-29T03:37:51;21.80;93.70
37289;DHT22;23174;49.462;11.000;2022-07-29T03:39:54;21.90;93.80
37289;DHT22;23174;49.462;11.000;2022-07-29T03:41:56;21.80;93.90
37289;DHT22;23174;49.462;11.000;2022-07-29T03:43:58;21.60;94.20
37289;DHT22;23174;49.462;11.000;2022-07-29T03:46:00;21.60;94.00
37289;DHT22;23174;49.462;11.000;2022-07-29T03:48:09;21.60;94.00
37289;DHT22;23174;49.462;11.000;2022-07-29T03:50:11;21.60;94.10
37289;DHT22;23174;49.462;11.000;2022-07-29T03:52:13;21.70;94.00
37289;DHT22;23174;49.462;11.000;2022-07-29T03:54:14;21.70;94.10
37289;DHT22;23174;49.462;11.000;2022-07-29T03:56:16;21.80;93.90
37289;DHT22;23174;49.462;11.000;2022-07-29T03:58:20;21.90;94.00
37289;DHT22;23174;49.462;11.000;2022-07-29T04:00:23;21.80;94.10
37289;DHT22;23174;49.462;11.000;2022-07-29T04:02:24;21.80;94.10
37289;DHT22;23174;49.462;11.000;2022-07-29T04:04:26;21.90;93.90
37289;DHT22;23174;49.462;11.000;2022-07-29T04:06:26;21.50;94.30
37289;DHT22;23174;49.462;11.000;2022-07-29T04:08:27;21.50;94.70
37289;DHT22;23174;49.462;11.000;2022-07-29T04:10:28;21.40;94.50
37289;DHT22;23174;49.462;11.000;2022-07-29T04:12:28;21.40;94.30
37289;DHT22;23174;49.462;11.000;2022-07-29T04:14:31;21.50;94.30
37289;DHT22;23174;49.462;11.000;2022-07-29T04:16:32;21.60;94.40
37289;DHT22;23174;49.462;11.000;2022-07-29T04:18:32;21.80;94.50
37289;DHT22;23174;49.462;11.000;2022-07-29T04:20:33;21.80;94.20
37289;DHT22;23174;49.462;11.000;2022-07-29T04:22:34;21.90;94.30
37289;DHT22;23174;49.462;11.000;2022-07-29T04:24:34;21.80;94.00
37289;DHT22;23174;49.462;11.000;2022-07-29T04:26:35;21.90;94.00
37289;DHT22;23174;49.462;11.000;2022-07-29T04:28:35;21.70;94.30
37289;DHT22;23174;49.462;11.000;2022-07-29T04:30:37;21.80;93.90
37289;DHT22;23174;49.462;11.000;2022-07-29T04:32:38;21.80;94.00
37289;DHT22;23174;49.462;11.000;2022-07-29T04:34:38;21.90;94.40
37289;DHT22;23174;49.462;11.000;2022-07-29T04:36:39;21.90;94.20
37289;DHT22;23174;49.462;11.000;2022-07-29T04:38:39;22.00;93.80
37289;DHT22;23174;49.462;11.000;2022-07-29T04:40:40;22.00;93.80
37289;DHT22;23174;49.462;11.000;2022-07-29T04:42:41;21.80;94.20
37289;DHT22;23174;49.462;11.000;2022-07-29T04:44:41;21.70;94.00
37289;DHT22;23174;49.462;11.000;2022-07-29T04:46:42;21.80;94.40
37289;DHT22;23174;49.462;11.000;2022-07-29T04:48:42;21.70;94.10
37289;DHT22;23174;49.462;11.000;2022-07-29T04:50:45;22.00;94.40
37289;DHT22;23174;49.462;11.000;2022-07-29T04:52:45;21.90;94.00
37289;DHT22;23174;49.462;11.000;2022-07-29T04:54:46;22.00;94.10
37289;DHT22;23174;49.462;11.000;2022-07-29T04:56:46;21.80;93.70
37289;DHT22;23174;49.462;11.000;2022-07-29T04:58:47;21.80;93.70
37289;DHT22;23174;49.462;11.000;2022-07-29T05:00:48;21.90;94.10
37289;DHT22;23174;49.462;11.000;2022-07-29T05:02:49;22.00;93.90
37289;DHT22;23174;49.462;11.000;2022-07-29T05:04:49;21.80;94.00
37289;DHT22;23174;49.462;11.000;2022-07-29T05:06:50;21.60;94.10
37289;DHT22;23174;49.462;11.000;2022-07-29T05:08:50;21.60;94.30
37289;DHT22;23174;49.462;11.000;2022-07-29T05:10:51;21.60;94.40
37289;DHT22;23174;49.462;11.000;2022-07-29T05:12:52;21.50;94.60
37289;DHT22;23174;49.462;11.000;2022-07-29T05:14:52;21.70;94.40
37289;DHT22;23174;49.462;11.000;2022-07-29T05:16:53;21.80;94.70
37289;DHT22;23174;49.462;11.000;2022-07-29T05:18:56;21.70;94.30
37289;DHT22;23174;49.462;11.000;2022-07-29T05:20:57;21.60;94.60
37289;DHT22;23174;49.462;11.000;2022-07-29T05:22:58;21.60;94.40
37289;DHT22;23174;49.462;11.000;2022-07-29T05:24:59;21.50;94.70
37289;DHT22;23174;49.462;11.000;2022-07-29T05:27:00;21.60;94.60
37289;DHT22;23174;49.462;11.000;2022-07-29T05:29:00;21.60;94.30
37289;DHT22;23174;49.462;11.000;2022-07-29T05:31:01;21.70;94.40
37289;DHT22;23174;49.462;11.000;2022-07-29T05:33:02;21.60;94.50
37289;DHT22;23174;49.462;11.000;2022-07-29T05:35:02;21.60;94.90
37289;DHT22;23174;49.462;11.000;2022-07-29T05:37:03;21.60;94.90
37289;DHT22;23174;49.462;11.000;2022-07-29T05:39:03;21.60;94.90
37289;DHT22;23174;49.462;11.000;2022-07-29T05:41:05;21.70;94.90
37289;DHT22;23174;49.462;11.000;2022-07-29T05:43:05;21.60;95.10
37289;DHT22;23174;49.462;11.000;2022-07-29T05:45:06;21.60;95.10
37289;DHT22;23174;49.462;11.000;2022-07-29T05:47:07;21.80;95.00
37289;DHT22;23174;49.462;11.000;2022-07-29T05:49:07;21.90;95.10
37289;DHT22;23174;49.462;11.000;2022-07-29T05:51:08;21.80;95.20
37289;DHT22;23174;49.462;11.000;2022-07-29T05:53:09;22.00;95.20
37289;DHT22;23174;49.462;11.000;2022-07-29T05:55:09;22.00;95.30
37289;DHT22;23174;49.462;11.000;2022-07-29T05:57:20;22.00;95.40
37289;DHT22;23174;49.462;11.000;2022-07-29T05:59:21;22.10;95.50
37289;DHT22;23174;49.462;11.000;2022-07-29T06:01:21;22.10;95.40
37289;DHT22;23174;49.462;11.000;2022-07-29T06:03:22;22.30;95.40
37289;DHT22;23174;49.462;11.000;2022-07-29T06:05:23;22.30;95.40
37289;DHT22;23174;49.462;11.000;2022-07-29T06:07:23;22.30;95.40
37289;DHT22;23174;49.462;11.000;2022-07-29T06:09:24;22.40;95.30
37289;DHT22;23174;49.462;11.000;2022-07-29T06:11:26;22.40;95.50
37289;DHT22;23174;49.462;11.000;2022-07-29T06:13:27;22.40;95.50
37289;DHT22;23174;49.462;11.000;2022-07-29T06:15:27;22.50;95.50
37289;DHT22;23174;49.462;11.000;2022-07-29T06:17:28;22.50;95.50
37289;DHT22;23174;49.462;11.000;2022-07-29T06:19:34;22.50;95.90
37289;DHT22;23174;49.462;11.000;2022-07-29T06:21:35;22.60;95.70
37289;DHT22;23174;49.462;11.000;2022-07-29T06:23:38;22.70;95.80
37289;DHT22;23174;49.462;11.000;2022-07-29T06:25:40;22.70;95.70
37289;DHT22;23174;49.462;11.000;2022-07-29T06:27:41;22.80;95.60
37289;DHT22;23174;49.462;11.000;2022-07-29T06:29:41;22.80;95.70
37289;DHT22;23174;49.462;11.000;2022-07-29T06:31:42;22.90;95.80
37289;DHT22;23174;49.462;11.000;2022-07-29T06:33:43;22.80;95.90
37289;DHT22;23174;49.462;11.000;2022-07-29T06:35:43;22.80;95.90
37289;DHT22;23174;49.462;11.000;2022-07-29T06:37:45;22.90;95.90
37289;DHT22;23174;49.462;11.000;2022-07-29T06:39:45;23.00;96.00
37289;DHT22;23174;49.462;11.000;2022-07-29T06:41:47;23.20;95.90
37289;DHT22;23174;49.462;11.000;2022-07-29T06:43:49;23.30;95.80
37289;DHT22;23174;49.462;11.000;2022-07-29T06:45:51;23.30;95.70
37289;DHT22;23174;49.462;11.000;2022-07-29T06:47:52;23.30;96.10
37289;DHT22;23174;49.462;11.000;2022-07-29T06:49:52;23.20;96.60
37289;DHT22;23174;49.462;11.000;2022-07-29T06:51:54;23.20;96.60
37289;DHT22;23174;49.462;11.000;2022-07-29T06:53:55;23.30;96.70
37289;DHT22;23174;49.462;11.000;2022-07-29T06:55:58;23.30;96.80
37289;DHT22;23174;49.462;11.000;2022-07-29T06:58:00;23.30;96.70
37289;DHT22;23174;49.462;11.000;2022-07-29T07:00:00;23.30;96.50
37289;DHT22;23174;49.462;11.000;2022-07-29T07:02:01;23.40;96.80
37289;DHT22;23174;49.462;11.000;2022-07-29T07:04:01;23.30;96.90
37289;DHT22;23174;49.462;11.000;2022-07-29T07:06:02;23.40;97.10
37289;DHT22;23174;49.462;11.000;2022-07-29T07:08:03;23.40;97.40
37289;DHT22;23174;49.462;11.000;2022-07-29T07:10:05;23.30;97.40
37289;DHT22;23174;49.462;11.000;2022-07-29T07:12:05;23.40;97.60
37289;DHT22;23174;49.462;11.000;2022-07-29T07:14:06;23.30;97.60
37289;DHT22;23174;49.462;11.000;2022-07-29T07:16:07;23.40;97.70
37289;DHT22;23174;49.462;11.000;2022-07-29T07:18:07;23.30;97.70
37289;DHT22;23174;49.462;11.000;2022-07-29T07:20:08;23.30;97.90
37289;DHT22;23174;49.462;11.000;2022-07-29T07:22:09;23.40;97.90
37289;DHT22;23174;49.462;11.000;2022-07-29T07:24:09;23.50;97.90
37289;DHT22;23174;49.462;11.000;2022-07-29T07:26:10;23.40;98.10
37289;DHT22;23174;49.462;11.000;2022-07-29T07:28:11;23.50;98.10
37289;DHT22;23174;49.462;11.000;2022-07-29T07:30:12;23.50;98.00
37289;DHT22;23174;49.462;11.000;2022-07-29T07:32:13;23.50;98.00
37289;DHT22;23174;49.462;11.000;2022-07-29T07:34:14;23.50;98.10
37289;DHT22;23174;49.462;11.000;2022-07-29T07:36:15;23.50;98.00
37289;DHT22;23174;49.462;11.000;2022-07-29T07:38:15;23.50;98.00
37289;DHT22;23174;49.462;11.000;2022-07-29T07:40:16;23.40;98.10
37289;DHT22;23174;49.462;11.000;2022-07-29T07:42:17;23.40;98.20
37289;DHT22;23174;49.462;11.000;2022-07-29T07:44:18;23.50;98.10
37289;DHT22;23174;49.462;11.000;2022-07-29T07:46:18;23.60;98.10
37289;DHT22;23174;49.462;11.000;2022-07-29T07:48:19;23.70;97.80
37289;DHT22;23174;49.462;11.000;2022-07-29T07:50:19;23.80;97.70
37289;DHT22;23174;49.462;11.000;2022-07-29T07:52:21;23.90;97.60
37289;DHT22;23174;49.462;11.000;2022-07-29T07:54:22;24.10;97.60
37289;DHT22;23174;49.462;11.000;2022-07-29T07:56:22;24.10;97.60
37289;DHT22;23174;49.462;11.000;2022-07-29T07:58:23;23.90;97.70
37289;DHT22;23174;49.462;11.000;2022-07-29T08:00:23;23.80;98.10
37289;DHT22;23174;49.462;11.000;2022-07-29T08:02:24;23.90;97.80
37289;DHT22;23174;49.462;11.000;2022-07-29T08:04:27;24.00;97.70
37289;DHT22;23174;49.462;11.000;2022-07-29T08:06:28;24.00;97.40
37289;DHT22;23174;49.462;11.000;2022-07-29T08:08:28;24.00;97.60
37289;DHT22;23174;49.462;11.000;2022-07-29T08:10:29;24.00;97.70
37289;DHT22;23174;49.462;11.000;2022-07-29T08:12:53;24.10;97.70
37289;DHT22;23174;49.462;11.000;2022-07-29T08:14:53;24.20;97.70
37289;DHT22;23174;49.462;11.000;2022-07-29T08:16:54;24.20;97.70
37289;DHT22;23174;49.462;11.000;2022-07-29T08:18:55;24.10;97.70
37289;DHT22;23174;49.462;11.000;2022-07-29T08:20:57;24.20;98.00
37289;DHT22;23174;49.462;11.000;2022-07-29T08:22:58;24.30;97.80
37289;DHT22;23174;49.462;11.000;2022-07-29T08:24:59;24.40;97.60
37289;DHT22;23174;49.462;11.000;2022-07-29T08:27:00;24.40;97.50
37289;DHT22;23174;49.462;11.000;2022-07-29T08:29:00;24.40;97.60
37289;DHT22;23174;49.462;11.000;2022-07-29T08:31:01;24.40;97.50
37289;DHT22;23174;49.462;11.000;2022-07-29T08:33:02;24.40;97.50
37289;DHT22;23174;49.462;11.000;2022-07-29T08:35:02;24.40;97.70
37289;DHT22;23174;49.462;11.000;2022-07-29T08:37:03;24.40;97.60
37289;DHT22;23174;49.462;11.000;2022-07-29T08:39:04;24.70;97.40
37289;DHT22;23174;49.462;11.000;2022-07-29T08:41:05;24.80;97.30
37289;DHT22;23174;49.462;11.000;2022-07-29T08:43:07;24.80;97.00
37289;DHT22;23174;49.462;11.000;2022-07-29T08:45:09;24.60;97.10
37289;DHT22;23174;49.462;11.000;2022-07-29T08:47:10;24.80;97.00
37289;DHT22;23174;49.462;11.000;2022-07-29T08:49:14;25.00;96.90
37289;DHT22;23174;49.462;11.000;2022-07-29T08:51:17;24.80;96.80
37289;DHT22;23174;49.462;11.000;2022-07-29T08:53:18;25.00;96.60
37289;DHT22;23174;49.462;11.000;2022-07-29T08:55:19;25.10;96.40
37289;DHT22;23174;49.462;11.000;2022-07-29T08:57:21;24.90;96.50
37289;DHT22;23174;49.462;11.000;2022-07-29T08:59:22;25.10;96.30
37289;DHT22;23174;49.462;11.000;2022-07-29T09:01:27;25.00;96.10
37289;DHT22;23174;49.462;11.000;2022-07-29T09:03:31;25.00;96.40
37289;DHT22;23174;49.462;11.000;2022-07-29T09:05:32;25.00;96.10
37289;DHT22;23174;49.462;11.000;2022-07-29T09:07:33;25.10;96.00
37289;DHT22;23174;49.462;11.000;2022-07-29T09:09:34;25.40;95.80
37289;DHT22;23174;49.462;11.000;2022-07-29T09:11:35;25.50;95.50
37289;DHT22;23174;49.462;11.000;2022-07-29T09:13:36;25.50;96.00
37289;DHT22;23174;49.462;11.000;2022-07-29T09:15:36;25.80;95.80
37289;DHT22;23174;49.462;11.000;2022-07-29T09:17:47;25.70;95.40
37289;DHT22;23174;49.462;11.000;2022-07-29T09:19:49;25.80;95.40
37289;DHT22;23174;49.462;11.000;2022-07-29T09:21:51;25.80;95.30
37289;DHT22;23174;49.462;11.000;2022-07-29T09:24:09;25.80;94.80
37289;DHT22;23174;49.462;11.000;2022-07-29T09:26:10;25.80;94.90
37289;DHT22;23174;49.462;11.000;2022-07-29T09:28:13;25.80;95.00
37289;DHT22;23174;49.462;11.000;2022-07-29T09:30:14;25.80;94.10
37289;DHT22;23174;49.462;11.000;2022-07-29T09:32:15;25.80;94.30
37289;DHT22;23174;49.462;11.000;2022-07-29T09:34:21;25.80;94.30
37289;DHT22;23174;49.462;11.000;2022-07-29T09:36:22;25.80;94.20
37289;DHT22;23174;49.462;11.000;2022-07-29T09:38:23;25.90;94.30
37289;DHT22;23174;49.462;11.000;2022-07-29T09:40:27;26.00;94.40
37289;DHT22;23174;49.462;11.000;2022-07-29T09:42:29;26.00;94.40
37289;DHT22;23174;49.462;11.000;2022-07-29T09:44:46;26.10;94.20
37289;DHT22;23174;49.462;11.000;2022-07-29T09:49:08;26.10;94.20
37289;DHT22;23174;49.462;11.000;2022-07-29T09:51:19;26.10;94.40
37289;DHT22;23174;49.462;11.000;2022-07-29T09:53:37;26.20;94.20
37289;DHT22;23174;49.462;11.000;2022-07-29T09:55:51;26.30;94.20
37289;DHT22;23174;49.462;11.000;2022-07-29T09:57:52;26.30;93.90
37289;DHT22;23174;49.462;11.000;2022-07-29T10:00:15;26.20;93.80
37289;DHT22;23174;49.462;11.000;2022-07-29T10:02:18;26.20;93.90
37289;DHT22;23174;49.462;11.000;2022-07-29T10:04:19;26.20;93.90
37289;DHT22;23174;49.462;11.000;2022-07-29T10:06:20;26.20;94.00
37289;DHT22;23174;49.462;11.000;2022-07-29T10:08:25;26.20;93.50
37289;DHT22;23174;49.462;11.000;2022-07-29T10:10:32;26.20;93.70
37289;DHT22;23174;49.462;11.000;2022-07-29T10:12:34;26.20;93.90
37289;DHT22;23174;49.462;11.000;2022-07-29T10:14:49;26.20;94.10
37289;DHT22;23174;49.462;11.000;2022-07-29T10:16:49;26.30;93.90
37289;DHT22;23174;49.462;11.000;2022-07-29T10:18:50;26.30;93.70
37289;DHT22;23174;49.462;11.000;2022-07-29T10:20:51;26.20;93.50
37289;DHT22;23174;49.462;11.000;2022-07-29T10:22:53;26.20;93.80
37289;DHT22;23174;49.462;11.000;2022-07-29T10:24:54;26.30;94.00
37289;DHT22;23174;49.462;11.000;2022-07-29T10:26:57;26.30;93.80
37289;DHT22;23174;49.462;11.000;2022-07-29T10:28:58;26.40;93.70
37289;DHT22;23174;49.462;11.000;2022-07-29T10:31:02;26.50;93.70
37289;DHT22;23174;49.462;11.000;2022-07-29T10:33:37;26.50;93.50
37289;DHT22;23174;49.462;11.000;2022-07-29T10:35:47;26.50;93.20
37289;DHT22;23174;49.462;11.000;2022-07-29T10:40:28;26.60;93.20
37289;DHT22;23174;49.462;11.000;2022-07-29T10:42:52;26.70;92.30
37289;DHT22;23174;49.462;11.000;2022-07-29T10:44:54;26.70;92.40
37289;DHT22;23174;49.462;11.000;2022-07-29T10:46:55;26.70;92.40
37289;DHT22;23174;49.462;11.000;2022-07-29T10:49:17;26.70;92.70
37289;DHT22;23174;49.462;11.000;2022-07-29T10:51:18;26.60;92.20
37289;DHT22;23174;49.462;11.000;2022-07-29T10:53:19;26.70;92.50
37289;DHT22;23174;49.462;11.000;2022-07-29T10:55:35;26.80;92.40
37289;DHT22;23174;49.462;11.000;2022-07-29T10:57:38;26.90;92.10
37289;DHT22;23174;49.462;11.000;2022-07-29T10:59:41;26.90;92.50
37289;DHT22;23174;49.462;11.000;2022-07-29T11:01:42;26.90;92.50
37289;DHT22;23174;49.462;11.000;2022-07-29T11:03:44;27.00;92.30
37289;DHT22;23174;49.462;11.000;2022-07-29T11:05:55;27.00;92.20
37289;DHT22;23174;49.462;11.000;2022-07-29T11:14:59;27.10;92.30
37289;DHT22;23174;49.462;11.000;2022-07-29T11:17:05;27.10;92.30
37289;DHT22;23174;49.462;11.000;2022-07-29T11:21:36;27.00;92.30
37289;DHT22;23174;49.462;11.000;2022-07-29T11:23:37;26.90;92.20
37289;DHT22;23174;49.462;11.000;2022-07-29T11:25:42;26.80;92.40
37289;DHT22;23174;49.462;11.000;2022-07-29T11:27:44;26.80;92.10
37289;DHT22;23174;49.462;11.000;2022-07-29T11:29:53;26.80;92.30
37289;DHT22;23174;49.462;11.000;2022-07-29T11:32:11;26.80;92.30
37289;DHT22;23174;49.462;11.000;2022-07-29T11:34:39;27.00;92.40
37289;DHT22;23174;49.462;11.000;2022-07-29T11:39:26;27.10;92.40
37289;DHT22;23174;49.462;11.000;2022-07-29T11:41:27;27.00;92.30
37289;DHT22;23174;49.462;11.000;2022-07-29T11:45:48;27.00;92.50
37289;DHT22;23174;49.462;11.000;2022-07-29T11:47:51;26.90;93.00
37289;DHT22;23174;49.462;11.000;2022-07-29T11:49:54;26.90;92.80
37289;DHT22;23174;49.462;11.000;2022-07-29T11:51:57;26.90;92.60
37289;DHT22;23174;49.462;11.000;2022-07-29T11:53:58;26.90;92.50
37289;DHT22;23174;49.462;11.000;2022-07-29T11:56:00;27.10;92.60
37289;DHT22;23174;49.462;11.000;2022-07-29T11:58:01;27.10;92.20
37289;DHT22;23174;49.462;11.000;2022-07-29T12:00:07;27.10;92.30
37289;DHT22;23174;49.462;11.000;2022-07-29T12:02:11;27.10;92.40
37289;DHT22;23174;49.462;11.000;2022-07-29T12:04:12;27.20;92.80
37289;DHT22;23174;49.462;11.000;2022-07-29T12:06:14;27.40;92.30
37289;DHT22;23174;49.462;11.000;2022-07-29T12:08:17;27.40;92.60
37289;DHT22;23174;49.462;11.000;2022-07-29T12:10:19;27.40;92.50
37289;DHT22;23174;49.462;11.000;2022-07-29T12:12:21;27.30;92.70
37289;DHT22;23174;49.462;11.000;2022-07-29T12:14:29;27.30;92.60
37289;DHT22;23174;49.462;11.000;2022-07-29T12:16:36;27.30;92.60
37289;DHT22;23174;49.462;11.000;2022-07-29T12:18:37;27.30;92.30
37289;DHT22;23174;49.462;11.000;2022-07-29T12:20:38;27.40;92.30
37289;DHT22;23174;49.462;11.000;2022-07-29T12:22:40;27.40;92.20
37289;DHT22;23174;49.462;11.000;2022-07-29T12:24:45;27.30;92.60
37289;DHT22;23174;49.462;11.000;2022-07-29T12:26:59;27.30;92.70
37289;DHT22;23174;49.462;11.000;2022-07-29T12:29:00;27.30;92.50
37289;DHT22;23174;49.462;11.000;2022-07-29T12:31:00;27.40;92.50
37289;DHT22;23174;49.462;11.000;2022-07-29T12:33:01;27.40;92.20
37289;DHT22;23174;49.462;11.000;2022-07-29T12:35:07;27.40;92.30
37289;DHT22;23174;49.462;11.000;2022-07-29T12:37:09;27.40;92.40
37289;DHT22;23174;49.462;11.000;2022-07-29T12:39:10;27.50;92.20
37289;DHT22;23174;49.462;11.000;2022-07-29T12:41:12;27.50;92.20
37289;DHT22;23174;49.462;11.000;2022-07-29T12:43:15;27.40;92.30
37289;DHT22;23174;49.462;11.000;2022-07-29T12:45:16;27.40;92.30
37289;DHT22;23174;49.462;11.000;2022-07-29T12:47:19;27.40;92.20
37289;DHT22;23174;49.462;11.000;2022-07-29T12:49:22;27.40;92.20
37289;DHT22;23174;49.462;11.000;2022-07-29T12:51:38;27.40;91.80
37289;DHT22;23174;49.462;11.000;2022-07-29T12:53:39;27.40;92.00
37289;DHT22;23174;49.462;11.000;2022-07-29T12:55:48;27.40;91.70
37289;DHT22;23174;49.462;11.000;2022-07-29T12:57:51;27.40;91.00
37289;DHT22;23174;49.462;11.000;2022-07-29T13:02:03;27.50;91.50
37289;DHT22;23174;49.462;11.000;2022-07-29T13:04:04;27.60;91.10
37289;DHT22;23174;49.462;11.000;2022-07-29T13:06:05;27.60;91.10
37289;DHT22;23174;49.462;11.000;2022-07-29T13:08:10;27.60;91.30
37289;DHT22;23174;49.462;11.000;2022-07-29T13:12:13;27.70;92.00
37289;DHT22;23174;49.462;11.000;2022-07-29T13:14:44;27.80;91.40